createdAt,value
2018-09-24T00:02:09.626Z,2.97
2018-09-24T00:04:37.723Z,2.80
2018-09-24T00:07:05.854Z,3.17
2018-09-24T00:09:33.951Z,3.17
2018-09-24T00:12:02.063Z,2.33
2018-09-24T00:14:30.146Z,2.90
2018-09-24T00:16:58.243Z,2.73
2018-09-24T00:19:26.324Z,3.20
2018-09-24T00:21:54.430Z,3.23
2018-09-24T00:24:22.542Z,3.23
2018-09-24T00:26:50.710Z,3.37
2018-09-24T00:29:18.818Z,3.10
2018-09-24T00:31:46.897Z,2.97
2018-09-24T00:34:14.970Z,3.67
2018-09-24T00:36:43.063Z,3.47
2018-09-24T00:39:11.723Z,2.80
2018-09-24T00:41:40.110Z,3.07
2018-09-24T00:44:08.384Z,2.83
2018-09-24T00:46:36.529Z,2.30
2018-09-24T00:49:04.640Z,3.00
2018-09-24T00:51:32.743Z,2.73
2018-09-24T00:54:00.836Z,2.43
2018-09-24T00:56:28.935Z,2.23
2018-09-24T00:58:57.119Z,2.13
2018-09-24T01:01:25.215Z,2.30
2018-09-24T01:03:53.343Z,1.73
2018-09-24T01:06:21.459Z,2.57
2018-09-24T01:08:49.543Z,2.77
2018-09-24T01:11:17.657Z,2.20
2018-09-24T01:13:45.738Z,1.90
2018-09-24T01:16:13.834Z,3.70
2018-09-24T01:18:41.911Z,2.37
2018-09-24T01:21:09.991Z,2.03
2018-09-24T01:23:38.070Z,2.23
2018-09-24T01:26:06.292Z,2.17
2018-09-24T01:28:34.362Z,1.50
2018-09-24T01:31:02.432Z,2.00
2018-09-24T01:33:30.514Z,2.70
2018-09-24T01:35:58.623Z,1.90
2018-09-24T01:38:26.715Z,1.40
2018-09-24T01:40:54.806Z,1.83
2018-09-24T01:43:22.894Z,1.60
2018-09-24T01:45:51.043Z,1.53
2018-09-24T01:48:19.152Z,1.80
2018-09-24T01:50:47.226Z,1.60
2018-09-24T01:53:15.324Z,1.90
2018-09-24T01:55:48.467Z,1.73
2018-09-24T01:58:16.546Z,1.90
2018-09-24T02:00:44.610Z,1.77
2018-09-24T02:03:12.686Z,2.50
2018-09-24T02:05:40.780Z,1.57
2018-09-24T02:08:08.878Z,2.17
2018-09-24T02:10:36.967Z,1.90
2018-09-24T02:13:05.195Z,2.03
2018-09-24T02:15:33.928Z,3.20
2018-09-24T02:18:02.214Z,3.33
2018-09-24T02:20:30.306Z,2.10
2018-09-24T02:22:58.407Z,1.57
2018-09-24T02:25:26.507Z,2.40
2018-09-24T02:27:54.610Z,2.00
2018-09-24T02:30:22.687Z,2.47
2018-09-24T02:32:50.831Z,2.03
2018-09-24T02:35:18.915Z,1.80
2018-09-24T02:37:47.010Z,1.93
2018-09-24T02:40:16.907Z,1.70
2018-09-24T02:42:45.207Z,1.93
2018-09-24T02:45:13.314Z,2.00
2018-09-24T02:47:41.408Z,2.10
2018-09-24T02:50:09.499Z,1.00
2018-09-24T02:52:37.607Z,1.37
2018-09-24T02:55:12.715Z,1.83
2018-09-24T02:57:41.104Z,1.60
2018-09-24T03:00:09.219Z,2.00
2018-09-24T03:02:37.670Z,1.90
2018-09-24T03:05:05.776Z,1.83
2018-09-24T03:07:34.006Z,2.43
2018-09-24T03:10:02.094Z,1.80
2018-09-24T03:12:30.213Z,1.57
2018-09-24T03:14:58.302Z,2.47
2018-09-24T03:17:26.403Z,1.67
2018-09-24T03:19:54.489Z,1.73
2018-09-24T03:22:23.779Z,2.40
2018-09-24T03:24:52.652Z,1.60
2018-09-24T03:27:21.244Z,2.40
2018-09-24T03:29:49.370Z,2.00
2018-09-24T03:32:17.455Z,2.30
2018-09-24T03:34:45.544Z,3.13
2018-09-24T03:37:13.695Z,1.60
2018-09-24T03:39:41.792Z,1.60
2018-09-24T03:42:09.887Z,1.73
2018-09-24T03:44:38.002Z,2.43
2018-09-24T03:47:06.097Z,2.47
2018-09-24T03:49:34.207Z,2.10
2018-09-24T03:52:02.283Z,2.50
2018-09-24T03:54:30.375Z,2.10
2018-09-24T03:56:58.455Z,1.83
2018-09-24T03:59:26.556Z,1.83
2018-09-24T04:01:54.651Z,2.13
2018-09-24T04:04:28.251Z,2.37
2018-09-24T04:07:01.904Z,1.33
2018-09-24T04:09:35.583Z,2.00
2018-09-24T04:12:08.865Z,1.43
2018-09-24T04:14:42.256Z,2.10
2018-09-24T04:17:15.920Z,2.10
2018-09-24T04:19:49.526Z,1.40
2018-09-24T04:22:23.107Z,1.70
2018-09-24T04:24:56.482Z,1.63
2018-09-24T04:27:30.061Z,1.87
2018-09-24T04:30:03.736Z,1.97
2018-09-24T04:32:37.126Z,1.93
2018-09-24T04:35:10.876Z,1.80
2018-09-24T04:37:44.383Z,2.60
2018-09-24T04:40:17.984Z,3.67
2018-09-24T04:42:51.648Z,2.20
2018-09-24T04:45:25.213Z,2.10
2018-09-24T04:47:58.728Z,3.47
2018-09-24T04:50:32.360Z,1.90
2018-09-24T04:53:05.859Z,1.80
2018-09-24T04:55:39.403Z,2.30
2018-09-24T04:58:12.848Z,1.20
2018-09-24T05:00:46.415Z,1.80
2018-09-24T05:03:20.002Z,2.07
2018-09-24T05:05:53.362Z,1.50
2018-09-24T05:08:26.981Z,1.57
2018-09-24T05:11:00.483Z,2.07
2018-09-24T05:13:34.021Z,1.83
2018-09-24T05:16:07.379Z,1.60
2018-09-24T05:18:40.873Z,2.10
2018-09-24T05:21:14.270Z,1.80
2018-09-24T05:23:47.707Z,1.60
2018-09-24T05:26:21.167Z,2.00
2018-09-24T05:28:54.686Z,2.97
2018-09-24T05:31:28.162Z,3.03
2018-09-24T05:34:01.893Z,1.90
2018-09-24T05:36:35.399Z,1.70
2018-09-24T05:39:09.021Z,1.60
2018-09-24T05:41:42.509Z,1.50
2018-09-24T05:44:16.144Z,1.43
2018-09-24T05:46:49.739Z,1.70
2018-09-24T05:49:23.253Z,2.00
2018-09-24T05:51:56.761Z,2.43
2018-09-24T05:54:30.309Z,1.73
2018-09-24T05:57:03.832Z,1.73
2018-09-24T05:59:37.316Z,1.50
2018-09-24T06:02:10.862Z,1.40
2018-09-24T06:04:44.457Z,1.40
2018-09-24T06:07:17.952Z,1.60
2018-09-24T06:09:51.459Z,2.00
2018-09-24T06:12:24.816Z,1.60
2018-09-24T06:14:58.302Z,1.50
2018-09-24T06:17:31.853Z,1.60
2018-09-24T06:20:05.352Z,2.40
2018-09-24T06:22:38.674Z,1.57
2018-09-24T06:25:12.211Z,1.63
2018-09-24T06:27:45.729Z,2.40
2018-09-24T06:30:19.170Z,1.77
2018-09-24T06:32:52.662Z,1.40
2018-09-24T06:35:26.404Z,1.67
2018-09-24T06:37:59.994Z,2.27
2018-09-24T06:40:33.387Z,1.60
2018-09-24T06:43:06.863Z,1.87
2018-09-24T06:45:40.167Z,1.97
2018-09-24T06:48:13.715Z,1.90
2018-09-24T06:50:47.339Z,1.70
2018-09-24T06:53:20.846Z,1.87
2018-09-24T06:55:54.337Z,1.57
2018-09-24T06:58:27.977Z,1.47
2018-09-24T07:01:01.618Z,1.40
2018-09-24T07:03:35.262Z,1.90
2018-09-24T07:06:08.659Z,1.70
2018-09-24T07:08:42.098Z,1.43
2018-09-24T07:11:15.611Z,1.57
2018-09-24T07:13:49.137Z,1.47
2018-09-24T07:16:22.674Z,1.80
2018-09-24T07:18:56.214Z,1.20
2018-09-24T07:21:36.802Z,1.50
2018-09-24T07:24:10.091Z,1.43
2018-09-24T07:26:43.533Z,1.40
2018-09-24T07:29:17.104Z,1.83
2018-09-24T07:31:50.750Z,1.50
2018-09-24T07:34:24.425Z,1.50
2018-09-24T07:36:58.021Z,1.50
2018-09-24T07:39:31.515Z,1.20
2018-09-24T07:42:05.114Z,1.77
2018-09-24T07:44:38.553Z,1.40
2018-09-24T07:47:11.970Z,1.47
2018-09-24T07:49:45.485Z,1.10
2018-09-24T07:52:18.910Z,1.00
2018-09-24T07:54:52.241Z,1.70
2018-09-24T07:57:25.686Z,1.47
2018-09-24T08:00:05.878Z,1.83
2018-09-24T08:02:39.476Z,2.03
2018-09-24T08:05:12.932Z,1.10
2018-09-24T08:07:46.514Z,1.70
2018-09-24T08:10:20.033Z,1.07
2018-09-24T08:12:53.593Z,1.80
2018-09-24T08:15:27.200Z,1.50
2018-09-24T08:18:00.772Z,1.70
2018-09-24T08:20:34.113Z,1.57
2018-09-24T08:23:07.452Z,1.30
2018-09-24T08:25:41.010Z,2.00
2018-09-24T08:28:14.722Z,1.47
2018-09-24T08:30:48.119Z,1.13
2018-09-24T08:33:21.722Z,2.37
2018-09-24T08:35:55.230Z,1.57
2018-09-24T08:38:28.890Z,1.60
2018-09-24T08:41:02.524Z,2.40
2018-09-24T08:43:36.014Z,1.93
2018-09-24T08:46:09.700Z,2.70
2018-09-24T08:48:43.048Z,1.87
2018-09-24T08:51:16.532Z,2.80
2018-09-24T08:53:50.038Z,1.97
2018-09-24T08:56:23.634Z,2.10
2018-09-24T08:58:57.163Z,2.33
2018-09-24T09:01:30.626Z,2.50
2018-09-24T09:04:04.124Z,2.17
2018-09-24T09:06:37.431Z,1.83
2018-09-24T09:09:14.694Z,2.50
2018-09-24T09:11:48.520Z,1.53
2018-09-24T09:14:22.219Z,2.60
2018-09-24T09:16:55.666Z,1.60
2018-09-24T09:19:29.373Z,1.77
2018-09-24T09:22:02.932Z,2.33
2018-09-24T09:24:36.447Z,2.47
2018-09-24T09:27:10.062Z,1.80
2018-09-24T09:29:43.590Z,2.13
2018-09-24T09:32:16.951Z,2.40
2018-09-24T09:34:50.446Z,1.97
2018-09-24T09:37:23.763Z,1.73
2018-09-24T09:39:57.312Z,2.57
2018-09-24T09:42:30.787Z,2.00
2018-09-24T09:45:04.241Z,1.80
2018-09-24T09:47:37.714Z,2.30
2018-09-24T09:50:11.142Z,1.30
2018-09-24T09:52:44.559Z,1.93
2018-09-24T09:55:17.954Z,5.23
2018-09-24T09:57:51.614Z,2.70
2018-09-24T10:00:25.067Z,2.20
2018-09-24T10:02:58.552Z,2.77
2018-09-24T10:05:32.127Z,2.00
2018-09-24T10:08:05.478Z,2.30
2018-09-24T10:10:38.938Z,3.07
2018-09-24T10:13:12.467Z,1.53
2018-09-24T10:15:45.938Z,1.50
2018-09-24T10:18:19.488Z,1.57
2018-09-24T10:20:53.127Z,2.13
2018-09-24T10:23:26.759Z,1.73
2018-09-24T10:26:00.255Z,1.50
2018-09-24T10:28:33.643Z,1.53
2018-09-24T10:31:07.166Z,2.07
2018-09-24T10:33:40.854Z,1.40
2018-09-24T10:36:14.500Z,1.53
2018-09-24T10:38:48.135Z,0.80
2018-09-24T10:41:21.817Z,1.57
2018-09-24T10:43:55.417Z,2.00
2018-09-24T10:46:28.991Z,1.10
2018-09-24T10:49:02.502Z,1.10
2018-09-24T10:51:36.233Z,2.37
2018-09-24T10:54:09.838Z,1.70
2018-09-24T10:56:43.183Z,1.10
2018-09-24T10:59:16.901Z,1.80
2018-09-24T11:01:50.390Z,1.73
2018-09-24T11:04:23.840Z,1.30
2018-09-24T11:06:57.294Z,1.80
2018-09-24T11:09:30.910Z,1.30
2018-09-24T11:12:04.641Z,2.27
2018-09-24T11:14:38.231Z,1.43
2018-09-24T11:17:11.867Z,1.80
2018-09-24T11:19:45.055Z,2.17
2018-09-24T11:22:18.783Z,2.70
2018-09-24T11:24:52.286Z,1.60
2018-09-24T11:27:25.843Z,3.37
2018-09-24T11:29:59.247Z,2.23
2018-09-24T11:32:32.756Z,0.90
2018-09-24T11:35:06.216Z,1.40
2018-09-24T11:37:39.918Z,1.40
2018-09-24T11:40:13.340Z,0.90
2018-09-24T11:42:46.890Z,0.70
2018-09-24T11:45:20.466Z,1.20
2018-09-24T11:47:53.846Z,1.13
2018-09-24T11:50:27.479Z,1.10
2018-09-24T11:53:01.011Z,1.60
2018-09-24T11:55:34.597Z,1.60
2018-09-24T11:58:08.039Z,1.60
2018-09-24T12:00:41.802Z,1.10
2018-09-24T12:03:15.454Z,1.53
2018-09-24T12:05:48.878Z,1.33
2018-09-24T12:08:22.379Z,1.60
2018-09-24T12:10:55.884Z,1.43
2018-09-24T12:13:29.447Z,0.97
2018-09-24T12:16:03.071Z,1.10
2018-09-24T12:18:36.634Z,1.97
2018-09-24T12:21:10.163Z,0.80
2018-09-24T12:23:43.826Z,1.03
2018-09-24T12:26:17.287Z,0.90
2018-09-24T12:28:50.867Z,0.80
2018-09-24T12:31:24.478Z,0.77
2018-09-24T12:33:57.996Z,0.80
2018-09-24T12:36:31.631Z,0.80
2018-09-24T12:39:05.138Z,0.70
2018-09-24T12:41:38.571Z,0.83
2018-09-24T12:44:12.143Z,1.10
2018-09-24T12:46:45.750Z,0.70
2018-09-24T12:49:19.400Z,0.70
2018-09-24T12:51:53.038Z,1.20
2018-09-24T12:54:26.680Z,1.80
2018-09-24T12:57:00.167Z,1.50
2018-09-24T12:59:33.741Z,1.60
2018-09-24T13:02:07.122Z,1.67
2018-09-24T13:04:40.578Z,1.20
2018-09-24T13:07:14.183Z,1.30
2018-09-24T13:09:47.753Z,1.60
2018-09-24T13:12:21.235Z,2.50
2018-09-24T13:14:54.823Z,1.23
2018-09-24T13:17:28.496Z,1.57
2018-09-24T13:20:02.042Z,1.23
2018-09-24T13:22:35.659Z,0.80
2018-09-24T13:25:09.054Z,1.03
2018-09-24T13:27:42.414Z,1.37
2018-09-24T13:30:15.987Z,1.07
2018-09-24T13:32:49.381Z,1.37
2018-09-24T13:35:22.755Z,0.63
2018-09-24T13:37:56.198Z,0.90
2018-09-24T13:40:29.631Z,1.60
2018-09-24T13:43:03.187Z,1.17
2018-09-24T13:45:36.763Z,1.33
2018-09-24T13:48:10.325Z,1.80
2018-09-24T13:50:44.006Z,1.00
2018-09-24T13:53:17.636Z,0.60
2018-09-24T13:55:51.183Z,0.70
2018-09-24T13:58:24.850Z,0.67
2018-09-24T14:00:58.342Z,0.47
2018-09-24T14:03:31.875Z,0.63
2018-09-24T14:06:05.273Z,0.60
2018-09-24T14:08:38.767Z,0.83
2018-09-24T14:11:12.135Z,0.80
2018-09-24T14:13:45.634Z,0.63
2018-09-24T14:16:19.150Z,1.10
2018-09-24T14:18:52.526Z,0.80
2018-09-24T14:21:26.079Z,1.17
2018-09-24T14:23:59.503Z,0.90
2018-09-24T14:26:33.081Z,1.10
2018-09-24T14:29:06.622Z,0.97
2018-09-24T14:31:40.158Z,0.90
2018-09-24T14:34:13.749Z,1.00
2018-09-24T14:36:47.379Z,1.00
2018-09-24T14:39:20.860Z,0.87
2018-09-24T14:41:54.613Z,1.10
2018-09-24T14:44:28.111Z,1.00
2018-09-24T14:47:01.616Z,1.83
2018-09-24T14:49:35.132Z,1.20
2018-09-24T14:52:08.726Z,1.03
2018-09-24T14:54:42.226Z,0.77
2018-09-24T14:57:15.682Z,1.00
2018-09-24T14:59:49.252Z,0.90
2018-09-24T15:02:22.639Z,1.10
2018-09-24T15:04:56.243Z,0.67
2018-09-24T15:07:29.847Z,1.20
2018-09-24T15:10:03.411Z,0.87
2018-09-24T15:12:36.711Z,1.03
2018-09-24T15:15:10.394Z,0.90
2018-09-24T15:17:43.972Z,1.03
2018-09-24T15:20:17.400Z,1.17
2018-09-24T15:22:50.969Z,1.30
2018-09-24T15:25:24.317Z,1.20
2018-09-24T15:27:57.778Z,1.63
2018-09-24T15:30:31.238Z,1.80
2018-09-24T15:33:04.748Z,1.90
2018-09-24T15:35:38.226Z,1.60
2018-09-24T15:38:11.886Z,1.40
2018-09-24T15:40:45.190Z,1.20
2018-09-24T15:43:18.658Z,1.10
2018-09-24T15:45:52.219Z,1.10
2018-09-24T15:48:25.767Z,1.20
2018-09-24T15:51:05.950Z,1.10
2018-09-24T15:53:39.425Z,1.60
2018-09-24T15:56:12.782Z,0.90
2018-09-24T15:58:46.258Z,1.20
2018-09-24T16:01:19.638Z,0.83
2018-09-24T16:03:53.186Z,1.13
2018-09-24T16:06:26.552Z,1.60
2018-09-24T16:09:00.237Z,1.33
2018-09-24T16:11:33.713Z,1.50
2018-09-24T16:14:07.287Z,0.90
2018-09-24T16:16:40.914Z,1.13
2018-09-24T16:19:14.311Z,1.33
2018-09-24T16:21:47.979Z,1.47
2018-09-24T16:24:21.656Z,1.63
2018-09-24T16:26:55.083Z,1.20
2018-09-24T16:29:28.431Z,1.30
2018-09-24T16:32:02.027Z,1.20
2018-09-24T16:34:35.666Z,1.47
2018-09-24T16:37:09.352Z,1.70
2018-09-24T16:39:42.953Z,1.53
2018-09-24T16:42:16.511Z,1.53
2018-09-24T16:44:49.967Z,1.40
2018-09-24T16:47:23.676Z,1.20
2018-09-24T16:49:57.314Z,1.60
2018-09-24T16:52:30.703Z,1.40
2018-09-24T16:55:04.408Z,2.00
2018-09-24T16:57:37.832Z,1.67
2018-09-24T17:00:11.692Z,1.07
2018-09-24T17:02:45.247Z,1.23
2018-09-24T17:05:18.739Z,0.97
2018-09-24T17:07:52.401Z,1.23
2018-09-24T17:10:25.948Z,1.13
2018-09-24T17:12:59.390Z,1.27
2018-09-24T17:15:33.066Z,1.50
2018-09-24T17:18:06.523Z,1.30
2018-09-24T17:20:40.226Z,2.30
2018-09-24T17:23:13.698Z,1.23
2018-09-24T17:25:47.304Z,1.50
2018-09-24T17:28:20.939Z,1.33
2018-09-24T17:30:54.612Z,2.23
2018-09-24T17:33:28.042Z,1.10
2018-09-24T17:36:01.464Z,1.20
2018-09-24T17:38:35.081Z,1.07
2018-09-24T17:41:08.547Z,1.40
2018-09-24T17:43:42.054Z,1.10
2018-09-24T17:46:15.449Z,1.50
2018-09-24T17:48:48.995Z,1.27
2018-09-24T17:51:22.564Z,1.50
2018-09-24T17:53:56.197Z,1.10
2018-09-24T17:56:29.876Z,1.00
2018-09-24T17:59:03.335Z,1.53
2018-09-24T18:01:36.919Z,1.43
2018-09-24T18:04:10.346Z,1.20
2018-09-24T18:06:43.834Z,1.13
2018-09-24T18:09:17.267Z,1.23
2018-09-24T18:11:50.720Z,2.00
2018-09-24T18:14:24.164Z,1.40
2018-09-24T18:16:57.815Z,1.77
2018-09-24T18:19:31.237Z,1.23
2018-09-24T18:22:04.719Z,0.97
2018-09-24T18:24:38.231Z,1.17
2018-09-24T18:27:11.728Z,1.00
2018-09-24T18:29:45.227Z,1.10
2018-09-24T18:32:18.838Z,1.07
2018-09-24T18:34:52.473Z,0.70
2018-09-24T18:37:25.930Z,1.17
2018-09-24T18:39:59.546Z,1.20
2018-09-24T18:42:33.219Z,1.30
2018-09-24T18:45:06.804Z,1.40
2018-09-24T18:47:40.283Z,1.60
2018-09-24T18:50:13.807Z,1.43
2018-09-24T18:52:47.250Z,1.30
2018-09-24T18:55:20.726Z,1.50
2018-09-24T18:57:54.191Z,1.50
2018-09-24T19:00:27.515Z,1.20
2018-09-24T19:03:00.943Z,1.90
2018-09-24T19:05:34.448Z,1.47
2018-09-24T19:08:07.774Z,1.47
2018-09-24T19:10:41.080Z,2.10
2018-09-24T19:13:14.652Z,2.60
2018-09-24T19:15:48.327Z,2.93
2018-09-24T19:18:21.880Z,2.40
2018-09-24T19:20:55.387Z,2.63
2018-09-24T19:23:28.887Z,2.07
2018-09-24T19:26:02.332Z,2.40
2018-09-24T19:28:36.029Z,1.30
2018-09-24T19:31:09.516Z,2.03
2018-09-24T19:33:42.836Z,1.83
2018-09-24T19:36:16.275Z,2.40
2018-09-24T19:38:49.773Z,1.77
2018-09-24T19:41:23.403Z,1.73
2018-09-24T19:43:57.026Z,1.37
2018-09-24T19:46:30.414Z,1.67
2018-09-24T19:49:03.862Z,1.60
2018-09-24T19:51:37.530Z,1.83
2018-09-24T19:54:11.092Z,1.50
2018-09-24T19:56:44.563Z,1.83
2018-09-24T19:59:18.109Z,2.27
2018-09-24T20:01:51.647Z,2.00
2018-09-24T20:04:24.910Z,1.77
2018-09-24T20:06:58.490Z,1.53
2018-09-24T20:09:32.196Z,2.73
2018-09-24T20:12:05.807Z,3.20
2018-09-24T20:14:39.374Z,2.80
2018-09-24T20:17:13.217Z,2.13
2018-09-24T20:19:46.788Z,2.20
2018-09-24T20:22:20.341Z,1.70
2018-09-24T20:24:53.935Z,2.03
2018-09-24T20:27:27.598Z,1.50
2018-09-24T20:30:01.219Z,2.10
2018-09-24T20:32:34.682Z,1.73
2018-09-24T20:35:08.061Z,1.60
2018-09-24T20:37:41.672Z,1.87
2018-09-24T20:40:15.222Z,2.07
2018-09-24T20:42:48.745Z,1.40
2018-09-24T20:45:22.403Z,2.00
2018-09-24T20:47:56.007Z,2.33
2018-09-24T20:50:29.628Z,1.13
2018-09-24T20:53:03.246Z,1.57
2018-09-24T20:55:36.670Z,1.60
2018-09-24T20:58:10.194Z,1.60
2018-09-24T21:00:43.835Z,1.97
2018-09-24T21:03:17.490Z,1.40
2018-09-24T21:05:51.043Z,2.07
2018-09-24T21:08:24.700Z,2.00
2018-09-24T21:10:58.198Z,2.70
2018-09-24T21:13:31.660Z,2.00
2018-09-24T21:16:05.107Z,2.40
2018-09-24T21:18:38.619Z,1.87
2018-09-24T21:21:12.140Z,1.90
2018-09-24T21:23:45.590Z,2.07
2018-09-24T21:26:18.993Z,1.80
2018-09-24T21:28:52.430Z,1.43
2018-09-24T21:31:25.886Z,1.40
2018-09-24T21:33:59.467Z,1.70
2018-09-24T21:36:33.071Z,1.70
2018-09-24T21:39:06.475Z,1.60
2018-09-24T21:41:39.871Z,1.80
2018-09-24T21:44:13.528Z,1.80
2018-09-24T21:46:47.031Z,2.00
2018-09-24T21:49:20.540Z,1.40
2018-09-24T21:51:53.958Z,2.07
2018-09-24T21:54:27.401Z,2.17
2018-09-24T21:57:01.055Z,1.67
2018-09-24T21:59:34.643Z,1.77
2018-09-24T22:02:08.067Z,2.00
2018-09-24T22:04:41.585Z,1.37
2018-09-24T22:07:15.199Z,2.00
2018-09-24T22:09:48.556Z,1.63
2018-09-24T22:12:22.270Z,1.40
2018-09-24T22:14:55.915Z,1.70
2018-09-24T22:17:29.347Z,1.50
2018-09-24T22:20:03.022Z,1.77
2018-09-24T22:22:36.483Z,1.77
2018-09-24T22:25:10.003Z,2.20
2018-09-24T22:27:43.634Z,1.27
2018-09-24T22:30:17.086Z,2.13
2018-09-24T22:32:50.714Z,1.77
2018-09-24T22:35:24.318Z,1.70
2018-09-24T22:37:57.831Z,1.40
2018-09-24T22:40:31.227Z,1.17
2018-09-24T22:43:04.590Z,1.40
2018-09-24T22:45:37.988Z,1.53
2018-09-24T22:48:11.471Z,1.10
2018-09-24T22:50:45.111Z,1.50
2018-09-24T22:53:18.503Z,1.20
2018-09-24T22:55:52.137Z,1.23
2018-09-24T22:58:25.738Z,2.10
2018-09-24T23:00:59.230Z,2.30
2018-09-24T23:03:32.817Z,1.53
2018-09-24T23:06:06.377Z,1.13
2018-09-24T23:08:40.079Z,1.60
2018-09-24T23:11:13.781Z,1.50
2018-09-24T23:13:47.415Z,1.87
2018-09-24T23:16:20.730Z,1.40
2018-09-24T23:18:54.227Z,1.70
2018-09-24T23:21:27.867Z,1.40
2018-09-24T23:24:01.329Z,1.90
2018-09-24T23:26:34.991Z,1.30
2018-09-24T23:29:08.510Z,1.33
2018-09-24T23:31:42.020Z,1.23
2018-09-24T23:34:15.313Z,2.00
2018-09-24T23:36:48.872Z,1.30
2018-09-24T23:39:22.478Z,1.73
2018-09-24T23:41:56.129Z,2.03
2018-09-24T23:44:29.836Z,1.73
2018-09-24T23:47:03.365Z,1.77
2018-09-24T23:49:36.895Z,2.00
2018-09-24T23:52:10.326Z,1.93
2018-09-24T23:54:43.802Z,1.60
2018-09-24T23:57:17.179Z,1.90
2018-09-24T23:59:50.724Z,1.97
